Time;durP1;ratioP1;P1;durP2;ratioP2;P2;SDS_P1;SDS_P2;PMS_P1;PMS_P2;Temp;Humidity;BMP_temperature;BMP_pressure;BME280_temperature;BME280_humidity;BME280_pressure;Samples;Min_cycle;Max_cycle;Signal;HPM_P1;HPM_P2
2024/04/12 00:00:57;;;;;;;6.30;4.27;;;17.30;99.90;;;;;;5440977;25;20533;-73
2024/04/12 00:03:26;;;;;;;6.37;4.37;;;17.30;99.90;;;;;;5417665;26;20488;-73
2024/04/12 00:05:54;;;;;;;8.93;7.40;;;17.30;99.90;;;;;;5481346;25;20561;-73
2024/04/12 00:08:28;;;;;;;8.57;5.50;;;17.30;99.90;;;;;;5475631;25;20471;-73
2024/04/12 00:10:56;;;;;;;5.00;4.40;;;17.30;99.90;;;;;;5452857;25;20521;-73
2024/04/12 00:13:26;;;;;;;10.43;7.23;;;17.30;99.90;;;;;;5469273;25;20482;-73
2024/04/12 00:15:55;;;;;;;6.67;6.03;;;17.30;99.90;;;;;;5471537;25;20523;-73
2024/04/12 00:18:26;;;;;;;13.20;8.60;;;17.20;99.90;;;;;;5455353;26;20550;-73
2024/04/12 00:20:58;;;;;;;8.00;7.03;;;17.20;99.90;;;;;;5473041;25;21029;-73
2024/04/12 00:23:30;;;;;;;43.07;32.43;;;17.20;99.90;;;;;;5453735;25;20467;-73
2024/04/12 00:25:59;;;;;;;15.87;13.20;;;17.20;99.90;;;;;;5451405;26;20517;-73
2024/04/12 00:28:29;;;;;;;11.23;9.17;;;17.20;99.90;;;;;;5441955;26;20550;-73
2024/04/12 00:30:59;;;;;;;19.10;14.40;;;17.20;99.90;;;;;;5456223;26;20550;-73
2024/04/12 00:33:31;;;;;;;9.53;8.63;;;17.20;99.90;;;;;;5455830;26;20467;-73
2024/04/12 00:36:06;;;;;;;11.77;9.87;;;17.10;99.90;;;;;;5453405;26;20578;-73
2024/04/12 00:38:35;;;;;;;10.77;8.67;;;17.10;99.90;;;;;;5419148;26;20479;-73
2024/04/12 00:41:11;;;;;;;21.37;17.17;;;17.20;99.90;;;;;;5419456;26;20520;-73
2024/04/12 00:43:45;;;;;;;11.20;8.83;;;17.10;99.90;;;;;;5437854;26;20480;-73
2024/04/12 00:46:14;;;;;;;8.93;8.00;;;17.20;99.90;;;;;;5453923;26;20935;-73
2024/04/12 00:48:43;;;;;;;7.27;5.63;;;17.10;99.90;;;;;;5491185;25;20486;-73
2024/04/12 00:51:16;;;;;;;8.83;6.47;;;17.10;99.90;;;;;;5459099;26;20482;-73
2024/04/12 00:53:46;;;;;;;13.97;11.33;;;17.10;99.90;;;;;;5452631;26;20829;-73
2024/04/12 00:56:13;;;;;;;10.73;9.60;;;17.10;99.90;;;;;;5466663;26;20523;-73
2024/04/12 00:58:42;;;;;;;15.03;12.57;;;17.10;99.90;;;;;;5455524;25;20534;-73
2024/04/12 01:01:11;;;;;;;8.53;7.73;;;17.10;99.90;;;;;;5444253;26;20476;-73
2024/04/12 01:03:45;;;;;;;6.90;5.40;;;17.10;99.90;;;;;;5445486;26;20474;-73
2024/04/12 01:06:16;;;;;;;8.10;7.30;;;17.10;99.90;;;;;;5448784;26;20477;-73
2024/04/12 01:08:46;;;;;;;7.67;6.43;;;17.10;99.90;;;;;;5463054;25;20475;-73
2024/04/12 01:11:13;;;;;;;8.30;7.50;;;17.10;99.90;;;;;;5445047;26;20848;-72
2024/04/12 01:13:42;;;;;;;8.70;7.50;;;17.10;99.90;;;;;;5458255;25;20481;-72
2024/04/12 01:16:10;;;;;;;7.30;6.40;;;17.10;99.90;;;;;;5465326;25;20552;-72
2024/04/12 01:18:39;;;;;;;4.93;4.53;;;17.10;99.90;;;;;;5464787;25;20479;-72
2024/04/12 01:21:10;;;;;;;9.80;8.37;;;17.10;99.90;;;;;;5471529;25;21029;-72
2024/04/12 01:23:43;;;;;;;16.30;13.83;;;17.10;99.90;;;;;;5473819;25;20474;-72
2024/04/12 01:26:13;;;;;;;17.53;15.10;;;17.10;99.90;;;;;;5465373;26;20971;-72
2024/04/12 01:28:44;;;;;;;15.47;13.60;;;17.10;99.90;;;;;;5455237;26;20550;-72
2024/04/12 01:31:15;;;;;;;12.33;11.03;;;17.10;99.90;;;;;;5455339;26;20827;-72
2024/04/12 01:33:48;;;;;;;11.30;10.10;;;17.10;99.90;;;;;;5455348;26;20535;-72
2024/04/12 01:36:17;;;;;;;18.20;16.30;;;17.10;99.90;;;;;;5455725;26;20523;-72
2024/04/12 01:38:53;;;;;;;16.67;14.83;;;17.10;99.90;;;;;;5454959;26;20475;-72
2024/04/12 01:41:22;;;;;;;12.57;11.27;;;17.00;99.90;;;;;;5455095;26;20474;-72
2024/04/12 01:43:52;;;;;;;36.23;28.80;;;17.00;99.90;;;;;;5439639;26;20515;-72
2024/04/12 01:46:21;;;;;;;24.50;20.30;;;17.00;99.90;;;;;;5472209;25;20556;-72
2024/04/12 01:48:50;;;;;;;14.77;12.20;;;17.00;99.90;;;;;;5491196;25;20560;-72
2024/04/12 01:51:16;;;;;;;9.53;8.63;;;17.00;99.90;;;;;;5491449;25;21026;-72
2024/04/12 01:53:45;;;;;;;8.83;8.00;;;17.00;99.90;;;;;;5491407;25;20589;-72
2024/04/12 01:56:14;;;;;;;15.93;14.10;;;17.00;99.90;;;;;;5491166;25;20485;-72
2024/04/12 01:58:45;;;;;;;28.07;19.60;;;17.00;99.90;;;;;;5491224;25;20537;-72
2024/04/12 02:01:11;;;;;;;29.63;25.53;;;17.00;99.90;;;;;;5468256;25;20952;-73
2024/04/12 02:03:40;;;;;;;9.07;7.10;;;17.00;99.90;;;;;;5454738;26;20475;-73
2024/04/12 02:06:06;;;;;;;6.47;5.80;;;17.00;99.90;;;;;;5453948;26;20912;-73
2024/04/12 02:08:35;;;;;;;8.33;7.50;;;17.00;99.90;;;;;;5451364;26;20487;-73
2024/04/12 02:11:05;;;;;;;6.13;5.23;;;17.00;99.90;;;;;;5418599;26;20958;-73
2024/04/12 02:13:39;;;;;;;6.57;4.60;;;17.10;99.90;;;;;;5417210;26;20786;-73
2024/04/12 02:16:10;;;;;;;7.53;4.77;;;17.10;99.90;;;;;;5414227;26;20533;-73
2024/04/12 02:18:44;;;;;;;5.53;4.40;;;17.10;99.90;;;;;;5417368;26;20488;-72
2024/04/12 02:21:10;;;;;;;15.33;13.30;;;17.10;99.90;;;;;;5417480;26;20570;-73
2024/04/12 02:23:41;;;;;;;7.47;5.47;;;17.10;99.90;;;;;;5417627;26;20472;-73
2024/04/12 02:26:09;;;;;;;23.23;20.73;;;17.10;99.90;;;;;;5418210;26;20473;-73
2024/04/12 02:28:39;;;;;;;8.87;7.80;;;17.10;99.90;;;;;;5417362;26;20741;-72
2024/04/12 02:31:08;;;;;;;26.47;20.90;;;17.10;99.90;;;;;;5418102;26;20560;-72
2024/04/12 02:33:38;;;;;;;25.70;13.87;;;17.10;99.90;;;;;;5417449;26;20785;-72
2024/04/12 02:36:11;;;;;;;11.57;7.90;;;17.20;99.90;;;;;;5417740;26;20543;-72
2024/04/12 02:38:40;;;;;;;8.00;4.67;;;17.20;99.90;;;;;;5416954;26;20468;-72
2024/04/12 02:41:13;;;;;;;7.30;5.40;;;17.10;99.90;;;;;;5417836;26;20544;-72
2024/04/12 02:43:42;;;;;;;5.50;5.00;;;17.10;99.90;;;;;;5417626;26;20480;-72
2024/04/12 02:46:11;;;;;;;10.53;7.90;;;17.10;99.90;;;;;;5417478;26;20468;-72
2024/04/12 02:48:43;;;;;;;18.27;16.37;;;17.10;99.90;;;;;;5417383;26;20531;-72
2024/04/12 02:51:13;;;;;;;6.00;5.40;;;17.10;99.90;;;;;;5417617;26;20480;-73
2024/04/12 02:53:42;;;;;;;5.33;4.80;;;17.10;99.90;;;;;;5417114;26;20457;-72
2024/04/12 02:56:09;;;;;;;6.53;5.00;;;17.10;99.90;;;;;;5417610;26;20477;-72
2024/04/12 02:58:41;;;;;;;5.70;5.13;;;17.10;99.90;;;;;;5417089;26;20531;-72
2024/04/12 03:01:11;;;;;;;7.77;5.53;;;17.10;99.90;;;;;;5417562;26;20785;-72
2024/04/12 03:03:45;;;;;;;16.83;15.03;;;17.10;99.90;;;;;;5416841;26;20491;-72
2024/04/12 03:06:12;;;;;;;8.87;7.97;;;17.10;99.90;;;;;;5417421;26;20477;-72
2024/04/12 03:08:44;;;;;;;11.27;9.20;;;17.10;99.90;;;;;;5416809;26;20528;-72
2024/04/12 03:11:14;;;;;;;13.10;11.80;;;17.10;99.90;;;;;;5417295;26;20504;-72
2024/04/12 03:13:46;;;;;;;24.00;17.67;;;17.10;99.90;;;;;;5416938;26;20573;-72
2024/04/12 03:16:14;;;;;;;30.93;23.27;;;17.10;99.90;;;;;;5416973;26;20524;-72
2024/04/12 03:18:44;;;;;;;7.67;7.00;;;17.10;99.90;;;;;;5416842;26;20766;-72
2024/04/12 03:21:13;;;;;;;9.57;7.80;;;17.10;99.90;;;;;;5416941;26;21027;-72
2024/04/12 03:23:43;;;;;;;27.43;19.40;;;17.00;99.90;;;;;;5416930;26;20528;-72
2024/04/12 03:26:10;;;;;;;15.50;13.27;;;17.00;99.90;;;;;;5417008;26;20476;-72
2024/04/12 03:28:39;;;;;;;14.13;9.80;;;17.00;99.90;;;;;;5416375;26;20476;-72
2024/04/12 03:31:07;;;;;;;8.30;6.67;;;17.00;99.90;;;;;;5416960;26;20472;-72
2024/04/12 03:33:42;;;;;;;20.33;17.27;;;17.10;99.90;;;;;;5416249;26;20476;-72
2024/04/12 03:36:26;;;;;;;12.80;10.63;;;17.00;99.90;;;;;;5416936;26;20468;-72
2024/04/12 03:39:24;;;;;;;43.43;35.57;;;17.10;99.90;;;;;;5416418;26;20483;-72
2024/04/12 03:41:44;;;;;;;24.50;20.33;;;17.00;99.90;;;;;;5416112;26;21021;-72
2024/04/12 03:44:13;;;;;;;17.47;13.77;;;17.00;99.90;;;;;;5416642;26;20488;-72
2024/04/12 03:46:40;;;;;;;13.67;12.20;;;17.00;99.90;;;;;;5417479;26;20483;-72
2024/04/12 03:49:16;;;;;;;14.23;12.73;;;17.00;99.90;;;;;;5419961;26;20472;-72
2024/04/12 03:51:46;;;;;;;27.87;21.67;;;17.00;99.90;;;;;;5419582;26;20510;-72
2024/04/12 03:54:17;;;;;;;17.67;15.17;;;17.00;99.90;;;;;;5420038;26;20993;-72
2024/04/12 03:56:44;;;;;;;19.07;13.83;;;17.00;99.90;;;;;;5419367;26;20476;-72
2024/04/12 03:59:14;;;;;;;11.50;10.17;;;17.00;99.90;;;;;;5419831;26;21003;-72
2024/04/12 04:01:44;;;;;;;23.07;18.50;;;17.00;99.90;;;;;;5419425;26;20465;-72
2024/04/12 04:04:19;;;;;;;24.43;19.13;;;17.00;99.90;;;;;;5419467;26;20469;-73
2024/04/12 04:06:48;;;;;;;19.00;15.60;;;17.00;99.90;;;;;;5418855;26;20535;-74
2024/04/12 04:09:19;;;;;;;12.27;10.70;;;17.00;99.90;;;;;;5419425;26;20888;-73
2024/04/12 04:11:46;;;;;;;17.57;15.57;;;17.00;99.90;;;;;;5419354;26;20476;-73
2024/04/12 04:14:19;;;;;;;22.67;18.23;;;17.00;99.90;;;;;;5419376;26;20531;-73
2024/04/12 04:16:49;;;;;;;18.50;14.03;;;17.00;99.90;;;;;;5419029;26;20483;-73
2024/04/12 04:19:30;;;;;;;38.17;28.83;;;17.00;99.90;;;;;;5419635;26;20596;-73
2024/04/12 04:22:01;;;;;;;10.47;9.43;;;17.00;99.90;;;;;;5419713;26;20476;-73
2024/04/12 04:24:30;;;;;;;11.40;10.30;;;17.00;99.90;;;;;;5419744;26;20480;-73
2024/04/12 04:26:56;;;;;;;20.00;17.47;;;17.00;99.90;;;;;;5418984;26;20563;-73
2024/04/12 04:29:25;;;;;;;15.23;13.27;;;17.00;99.90;;;;;;5419411;26;20564;-73
2024/04/12 04:31:52;;;;;;;13.70;11.87;;;17.00;99.90;;;;;;5418996;26;21013;-73
2024/04/12 04:34:25;;;;;;;24.53;20.27;;;17.00;99.90;;;;;;5419305;26;20484;-74
2024/04/12 04:36:55;;;;;;;32.73;26.50;;;17.00;99.90;;;;;;5419245;26;20533;-74
2024/04/12 04:39:25;;;;;;;29.33;21.67;;;17.00;99.90;;;;;;5419175;26;20532;-73
2024/04/12 04:41:52;;;;;;;16.97;15.23;;;17.00;99.90;;;;;;5418874;26;20636;-73
2024/04/12 04:44:22;;;;;;;19.23;14.10;;;17.00;99.90;;;;;;5419283;26;20966;-73
2024/04/12 04:46:49;;;;;;;14.53;11.73;;;17.00;99.90;;;;;;5418839;26;20528;-73
2024/04/12 04:49:23;;;;;;;6.27;5.60;;;17.00;99.90;;;;;;5419316;26;20593;-73
2024/04/12 04:51:51;;;;;;;57.37;35.77;;;17.00;99.90;;;;;;5418896;26;20480;-73
2024/04/12 04:54:24;;;;;;;19.70;16.87;;;17.00;99.90;;;;;;5419467;26;20472;-73
2024/04/12 04:56:50;;;;;;;14.73;13.20;;;17.00;99.90;;;;;;5418504;26;21098;-73
2024/04/12 04:59:28;;;;;;;26.17;21.97;;;16.90;99.90;;;;;;5417513;26;20802;-73
2024/04/12 05:01:55;;;;;;;19.50;15.40;;;16.90;99.90;;;;;;5418868;26;20520;-73
2024/04/12 05:04:25;;;;;;;15.60;11.07;;;16.90;99.90;;;;;;5419324;26;20476;-73
2024/04/12 05:06:55;;;;;;;18.70;15.63;;;16.90;99.90;;;;;;5418336;26;20476;-73
2024/04/12 05:09:27;;;;;;;8.40;7.60;;;16.90;99.90;;;;;;5418787;26;20595;-73
2024/04/12 05:11:53;;;;;;;7.40;6.47;;;16.80;99.90;;;;;;5418435;26;20591;-73
2024/04/12 05:17:04;;;;;;;9.53;6.23;;;16.80;99.90;;;;;;5417990;26;20532;-73
2024/04/12 05:19:31;;;;;;;9.40;7.90;;;16.80;99.90;;;;;;5418748;26;20476;-72
2024/04/12 05:22:03;;;;;;;8.80;7.20;;;16.70;99.90;;;;;;5418350;26;20592;-72
2024/04/12 05:24:29;;;;;;;6.83;6.07;;;16.80;99.90;;;;;;5418420;26;20468;-72
2024/04/12 05:27:01;;;;;;;11.90;9.40;;;16.80;99.90;;;;;;5418338;26;20927;-72
2024/04/12 05:29:28;;;;;;;10.17;7.40;;;16.80;99.90;;;;;;5418659;26;20536;-71
2024/04/12 05:31:57;;;;;;;6.93;6.23;;;16.90;99.90;;;;;;5417853;26;20476;-72
2024/04/12 05:34:26;;;;;;;6.57;5.50;;;16.90;99.90;;;;;;5418541;26;20465;-72
2024/04/12 05:36:55;;;;;;;6.30;5.20;;;16.90;99.90;;;;;;5418034;26;20544;-72
2024/04/12 05:39:26;;;;;;;6.90;5.97;;;16.90;99.90;;;;;;5418427;26;20525;-72
2024/04/12 05:41:53;;;;;;;7.07;6.10;;;17.00;99.90;;;;;;5418059;26;20585;-72
2024/04/12 05:44:21;;;;;;;6.90;6.20;;;17.00;99.90;;;;;;5418562;26;20472;-72
2024/04/12 05:46:47;;;;;;;7.27;6.30;;;17.00;99.90;;;;;;5417802;26;20556;-72
2024/04/12 05:49:20;;;;;;;8.63;7.50;;;17.00;99.90;;;;;;5418437;26;20583;-72
2024/04/12 05:51:49;;;;;;;7.80;7.00;;;17.00;99.90;;;;;;5418019;26;20465;-72
2024/04/12 05:54:19;;;;;;;9.70;8.27;;;17.00;99.90;;;;;;5418284;26;20579;-73
2024/04/12 05:56:50;;;;;;;9.30;8.30;;;17.10;99.90;;;;;;5417875;26;20555;-72
2024/04/12 05:59:19;;;;;;;7.40;6.80;;;17.10;99.90;;;;;;5418249;26;20480;-72
2024/04/12 06:01:46;;;;;;;12.97;10.40;;;17.10;99.90;;;;;;5417641;26;20620;-73
2024/04/12 06:04:19;;;;;;;19.83;17.73;;;17.10;99.90;;;;;;5418301;26;20476;-72
2024/04/12 06:06:45;;;;;;;13.20;11.90;;;17.20;99.90;;;;;;5417736;26;20543;-73
2024/04/12 06:09:19;;;;;;;14.23;12.80;;;17.20;99.90;;;;;;5417504;26;20472;-73
2024/04/12 06:11:50;;;;;;;18.33;16.57;;;17.20;99.90;;;;;;5417659;26;20464;-73
2024/04/12 06:14:20;;;;;;;15.30;13.23;;;17.20;99.90;;;;;;5417880;26;20560;-73
2024/04/12 06:16:47;;;;;;;17.23;15.43;;;17.20;99.90;;;;;;5417627;26;20603;-73
2024/04/12 06:19:17;;;;;;;21.47;18.37;;;17.30;99.90;;;;;;5417846;26;20484;-73
2024/04/12 06:21:45;;;;;;;17.10;13.80;;;17.30;99.90;;;;;;5418146;26;20465;-73
2024/04/12 06:24:15;;;;;;;26.33;23.57;;;17.30;99.90;;;;;;5438980;26;20466;-73
2024/04/12 06:26:47;;;;;;;37.93;30.47;;;17.30;99.90;;;;;;5453818;26;20793;-73
2024/04/12 06:29:19;;;;;;;29.43;23.87;;;17.30;99.90;;;;;;5453239;26;20548;-73
2024/04/12 06:31:45;;;;;;;23.87;18.53;;;17.40;99.90;;;;;;5453968;26;21054;-73
2024/04/12 06:34:17;;;;;;;20.00;17.63;;;17.40;99.90;;;;;;5453276;26;20471;-73
2024/04/12 06:36:45;;;;;;;40.87;26.63;;;17.40;99.90;;;;;;5453678;26;20834;-73
2024/04/12 06:39:14;;;;;;;25.67;19.00;;;17.40;99.90;;;;;;5453397;26;20523;-72
2024/04/12 06:41:40;;;;;;;23.93;18.33;;;17.40;99.90;;;;;;5453909;26;20543;-73
2024/04/12 06:44:19;;;;;;;10.60;9.03;;;17.40;99.90;;;;;;5452904;26;20832;-72
2024/04/12 06:46:51;;;;;;;13.00;11.60;;;17.50;99.90;;;;;;5453366;26;21016;-72
2024/04/12 06:49:26;;;;;;;9.10;8.20;;;17.50;99.90;;;;;;5417372;26;20500;-72
2024/04/12 06:52:11;;;;;;;46.87;32.47;;;17.40;99.90;;;;;;5417794;26;20480;-72
2024/04/12 06:54:41;;;;;;;13.70;12.30;;;17.40;99.90;;;;;;5453269;26;20804;-72
2024/04/12 06:57:07;;;;;;;18.07;11.90;;;17.40;99.90;;;;;;5453230;26;21068;-72
2024/04/12 06:59:40;;;;;;;22.63;17.63;;;17.30;99.90;;;;;;5453311;26;20471;-72
2024/04/12 07:02:09;;;;;;;14.57;9.37;;;17.30;99.90;;;;;;5423411;26;20483;-73
2024/04/12 07:04:38;;;;;;;8.83;7.93;;;17.30;99.90;;;;;;5453368;26;20910;-72
2024/04/12 07:07:04;;;;;;;14.43;8.57;;;17.30;99.90;;;;;;5452414;26;20574;-73
2024/04/12 07:09:34;;;;;;;7.97;7.17;;;17.20;99.90;;;;;;5453192;26;20590;-73
2024/04/12 07:12:05;;;;;;;10.47;7.67;;;17.20;99.90;;;;;;5452660;26;20539;-73
2024/04/12 07:14:41;;;;;;;8.73;7.83;;;17.20;99.90;;;;;;5452931;26;20578;-74
2024/04/12 07:17:20;;;;;;;11.33;8.60;;;17.20;99.90;;;;;;5452581;26;20478;-73
2024/04/12 07:19:51;;;;;;;9.20;8.27;;;17.20;99.90;;;;;;5452764;26;20517;-73
2024/04/12 07:22:19;;;;;;;16.27;13.50;;;17.20;99.90;;;;;;5451628;26;20539;-73
2024/04/12 07:24:50;;;;;;;10.47;9.37;;;17.30;99.90;;;;;;5452399;26;20471;-72
2024/04/12 07:27:17;;;;;;;7.87;7.07;;;17.30;99.90;;;;;;5452858;26;20550;-73
2024/04/12 07:29:46;;;;;;;8.63;7.77;;;17.40;99.90;;;;;;5453108;26;20475;-73
2024/04/12 07:32:16;;;;;;;9.03;8.10;;;17.40;99.90;;;;;;5416571;26;20563;-73
2024/04/12 07:34:48;;;;;;;7.97;6.83;;;17.40;99.90;;;;;;5416947;26;20477;-73
2024/04/12 07:37:26;;;;;;;13.43;9.90;;;17.40;99.90;;;;;;5437613;26;20479;-73
2024/04/12 07:40:15;;;;;;;9.77;8.97;;;17.40;99.90;;;;;;5452393;26;20530;-73
2024/04/12 07:42:45;;;;;;;13.13;10.70;;;17.40;99.90;;;;;;5452526;26;20487;-73
2024/04/12 07:45:17;;;;;;;11.70;10.30;;;17.40;99.90;;;;;;5451922;26;20466;-73
2024/04/12 07:47:52;;;;;;;13.70;12.27;;;17.40;99.90;;;;;;5452369;26;20487;-73
2024/04/12 07:50:28;;;;;;;10.60;9.57;;;17.40;99.90;;;;;;5437298;26;20478;-73
2024/04/12 07:52:57;;;;;;;10.33;8.63;;;17.40;99.90;;;;;;5452189;26;20830;-73
2024/04/12 07:55:26;;;;;;;11.30;10.13;;;17.50;99.90;;;;;;5452332;26;20543;-73
2024/04/12 07:57:52;;;;;;;16.40;13.93;;;17.50;99.90;;;;;;5452531;26;20471;-73
2024/04/12 08:00:35;;;;;;;14.53;11.87;;;17.60;99.90;;;;;;5451872;26;20471;-73
2024/04/12 08:03:06;;;;;;;9.90;8.80;;;17.70;99.90;;;;;;5451818;26;20483;-73
2024/04/12 08:05:49;;;;;;;8.80;8.00;;;17.80;99.90;;;;;;5452344;26;20471;-73
2024/04/12 08:08:15;;;;;;;25.70;20.43;;;17.80;99.90;;;;;;5451511;26;20475;-73
2024/04/12 08:10:45;;;;;;;11.83;10.63;;;17.90;99.90;;;;;;5452223;26;20478;-73
2024/04/12 08:13:11;;;;;;;11.40;10.40;;;17.90;99.90;;;;;;5451314;26;20483;-73
2024/04/12 08:15:43;;;;;;;9.03;8.23;;;18.00;99.90;;;;;;5451930;26;20871;-73
2024/04/12 08:18:20;;;;;;;8.50;7.53;;;18.00;99.90;;;;;;5451807;26;20992;-73
2024/04/12 08:20:49;;;;;;;11.80;10.57;;;18.10;99.90;;;;;;5452033;26;20483;-73
2024/04/12 08:23:17;;;;;;;9.30;8.40;;;18.10;99.90;;;;;;5451172;26;20593;-73
2024/04/12 08:25:48;;;;;;;9.73;8.43;;;18.20;99.90;;;;;;5451927;26;20785;-73
2024/04/12 08:28:14;;;;;;;8.00;7.30;;;18.20;99.90;;;;;;5451227;26;20471;-73
2024/04/12 08:30:51;;;;;;;7.83;7.13;;;18.20;99.90;;;;;;5451747;26;20475;-73
2024/04/12 08:33:24;;;;;;;8.13;7.33;;;18.30;99.90;;;;;;5453697;26;20936;-73
2024/04/12 08:35:55;;;;;;;7.40;6.90;;;18.30;99.90;;;;;;5455774;26;20601;-73
2024/04/12 08:38:22;;;;;;;8.70;7.90;;;18.40;99.90;;;;;;5454994;26;20801;-73
2024/04/12 08:40:52;;;;;;;10.47;8.70;;;18.40;99.90;;;;;;5455502;26;20471;-72
2024/04/12 08:43:19;;;;;;;7.00;6.30;;;18.40;99.90;;;;;;5454950;26;20531;-72
2024/04/12 08:45:58;;;;;;;9.40;7.63;;;18.40;99.90;;;;;;5455678;26;20471;-72
2024/04/12 08:48:27;;;;;;;12.00;10.53;;;18.50;99.90;;;;;;5454791;26;20579;-72
2024/04/12 08:51:04;;;;;;;13.60;10.17;;;18.50;99.90;;;;;;5455091;26;20527;-73
2024/04/12 08:53:31;;;;;;;13.07;10.63;;;18.50;99.90;;;;;;5454653;26;20828;-72
2024/04/12 08:56:01;;;;;;;11.73;10.43;;;18.50;99.90;;;;;;5455241;26;20845;-72
2024/04/12 08:58:27;;;;;;;11.23;9.83;;;18.40;99.90;;;;;;5454436;26;20462;-72
2024/04/12 09:00:56;;;;;;;11.60;9.33;;;18.40;99.90;;;;;;5455279;26;20822;-72
2024/04/12 09:03:24;;;;;;;10.37;9.30;;;18.30;99.90;;;;;;5454532;26;20617;-73
2024/04/12 09:05:56;;;;;;;12.73;11.33;;;18.40;99.90;;;;;;5454977;26;20578;-72
2024/04/12 09:08:28;;;;;;;11.33;9.63;;;18.40;99.90;;;;;;5454281;26;20459;-72
2024/04/12 09:11:05;;;;;;;9.53;8.53;;;18.40;99.90;;;;;;5455051;26;20475;-73
2024/04/12 09:13:32;;;;;;;8.70;7.90;;;18.40;99.90;;;;;;5418526;26;20578;-73
2024/04/12 09:16:06;;;;;;;8.23;7.43;;;18.40;99.90;;;;;;5446405;26;20482;-72
2024/04/12 09:18:44;;;;;;;10.37;9.20;;;18.40;99.90;;;;;;5454062;26;20940;-72
2024/04/12 09:21:24;;;;;;;11.23;9.50;;;18.40;99.90;;;;;;5454540;26;20479;-72
2024/04/12 09:23:50;;;;;;;17.57;13.53;;;18.30;99.90;;;;;;5454976;26;20475;-72
2024/04/12 09:26:39;;;;;;;10.17;9.17;;;18.20;99.90;;;;;;5453996;26;20486;-73
2024/04/12 09:29:09;;;;;;;9.50;8.70;;;18.20;99.90;;;;;;5454584;26;20532;-72
2024/04/12 09:34:29;;;;;;;9.63;8.63;;;18.20;99.90;;;;;;5456904;26;20531;-72
2024/04/12 09:37:02;;;;;;;13.13;11.77;;;18.20;99.90;;;;;;5454598;26;20474;-72
2024/04/12 09:39:41;;;;;;;13.53;10.00;;;18.30;99.90;;;;;;5454300;26;20851;-72
2024/04/12 09:42:12;;;;;;;10.90;8.90;;;18.30;99.90;;;;;;5454370;26;20482;-73
2024/04/12 09:44:48;;;;;;;10.23;8.30;;;18.20;99.90;;;;;;5453276;26;21001;-72
2024/04/12 10:37:28;;;;;;;7.03;6.40;;;18.60;99.90;;;;;;5434209;26;20601;-72
2024/04/12 10:39:58;;;;;;;10.27;7.50;;;18.70;99.90;;;;;;5454042;26;20483;-72
2024/04/12 10:42:31;;;;;;;9.77;8.10;;;18.70;99.90;;;;;;5438702;26;20550;-72
2024/04/12 10:45:01;;;;;;;9.53;6.97;;;18.70;99.90;;;;;;5453573;26;20478;-72
2024/04/12 10:47:28;;;;;;;8.23;6.20;;;18.70;99.90;;;;;;5452143;26;20538;-72
2024/04/12 10:49:57;;;;;;;7.53;5.60;;;18.70;99.90;;;;;;5453460;26;20479;-72
2024/04/12 10:52:28;;;;;;;17.00;12.20;;;18.80;99.90;;;;;;5452915;26;20781;-72
2024/04/12 10:54:58;;;;;;;9.73;8.73;;;18.90;99.90;;;;;;5452891;26;20524;-72
2024/04/12 10:57:29;;;;;;;8.93;7.23;;;19.00;99.90;;;;;;5452954;26;20478;-73
2024/04/12 11:00:00;;;;;;;7.57;6.90;;;19.00;99.90;;;;;;5454340;26;20475;-73
2024/04/12 11:02:27;;;;;;;7.73;6.40;;;19.10;99.90;;;;;;5453944;26;20475;-72
2024/04/12 11:05:24;;;;;;;7.37;6.67;;;19.20;99.90;;;;;;5454625;26;20517;-72
2024/04/12 11:07:52;;;;;;;11.50;9.40;;;19.20;99.90;;;;;;5453988;26;20470;-72
2024/04/12 11:10:25;;;;;;;6.57;6.00;;;19.30;99.90;;;;;;5454462;26;20483;-72
2024/04/12 11:12:59;;;;;;;7.80;6.07;;;19.40;99.90;;;;;;5453872;26;20475;-72
2024/04/12 11:32:05;;;;;;;8.47;6.67;;;19.70;99.90;;;;;;5420166;26;20507;-72
2024/04/12 11:34:38;;;;;;;6.20;5.60;;;19.70;99.90;;;;;;5418303;26;20532;-72
2024/04/12 11:37:08;;;;;;;12.87;9.10;;;19.70;99.90;;;;;;5417769;26;20942;-72
2024/04/12 11:39:36;;;;;;;14.73;11.47;;;19.80;99.90;;;;;;5417816;26;20543;-72
2024/04/12 11:42:06;;;;;;;8.10;6.73;;;19.90;99.90;;;;;;5417372;26;20562;-73
2024/04/12 11:44:34;;;;;;;6.57;5.87;;;20.00;99.90;;;;;;5417893;26;20495;-72
2024/04/12 11:47:05;;;;;;;13.73;10.63;;;20.10;99.90;;;;;;5417210;26;20472;-73
2024/04/12 11:49:41;;;;;;;7.30;6.53;;;20.20;99.90;;;;;;5417743;26;20468;-72
2024/04/12 11:52:15;;;;;;;11.03;9.57;;;20.20;99.90;;;;;;5417610;26;20536;-72
2024/04/12 11:54:51;;;;;;;10.40;6.70;;;20.20;99.90;;;;;;5417678;26;20510;-72
2024/04/12 11:57:22;;;;;;;8.33;6.87;;;20.20;99.90;;;;;;5417121;26;20464;-73
2024/04/12 11:59:58;;;;;;;14.73;9.77;;;20.10;99.90;;;;;;5417779;26;20477;-73
2024/04/12 12:02:27;;;;;;;9.27;8.37;;;20.20;99.90;;;;;;5417245;26;20524;-72
2024/04/12 12:04:56;;;;;;;6.20;5.30;;;20.30;99.90;;;;;;5417532;26;21053;-72
2024/04/12 12:07:23;;;;;;;10.47;9.43;;;20.30;99.90;;;;;;5417623;26;20548;-72
2024/04/12 12:09:52;;;;;;;6.60;5.90;;;20.20;99.90;;;;;;5421122;26;20771;-73
2024/04/12 12:12:21;;;;;;;8.33;7.63;;;20.20;99.90;;;;;;5420590;26;20806;-73
2024/04/12 12:14:54;;;;;;;7.57;5.63;;;20.30;99.90;;;;;;5420701;26;20852;-73
2024/04/12 12:17:20;;;;;;;5.67;5.20;;;20.30;99.90;;;;;;5420140;26;20492;-72
2024/04/12 12:19:50;;;;;;;6.37;5.70;;;20.30;99.90;;;;;;5420770;26;20469;-72
2024/04/12 12:22:18;;;;;;;8.17;7.47;;;20.40;99.90;;;;;;5419911;26;20476;-72
2024/04/12 12:24:49;;;;;;;5.80;5.30;;;20.40;99.90;;;;;;5420533;26;21009;-73
2024/04/12 12:27:16;;;;;;;5.00;4.60;;;20.50;99.90;;;;;;5420273;26;20535;-73
2024/04/12 12:29:48;;;;;;;5.63;4.77;;;20.50;99.90;;;;;;5420498;26;20536;-73
2024/04/12 12:32:19;;;;;;;7.30;6.60;;;20.60;99.90;;;;;;5419965;26;20528;-72
2024/04/12 12:34:47;;;;;;;6.30;5.60;;;20.70;99.90;;;;;;5420481;26;20563;-73
2024/04/12 12:37:13;;;;;;;5.80;5.30;;;20.70;99.90;;;;;;5419873;26;20551;-72
2024/04/12 12:39:43;;;;;;;11.77;10.60;;;20.80;99.90;;;;;;5420336;26;20893;-72
2024/04/12 12:42:09;;;;;;;8.17;5.57;;;20.80;99.90;;;;;;5420164;26;20595;-72
2024/04/12 12:44:41;;;;;;;6.30;5.73;;;20.90;99.90;;;;;;5420376;26;20560;-73
2024/04/12 12:47:08;;;;;;;10.63;8.77;;;20.90;99.90;;;;;;5419911;26;20997;-73
2024/04/12 12:49:46;;;;;;;8.73;5.67;;;21.00;99.90;;;;;;5420508;26;20468;-73
2024/04/12 12:52:13;;;;;;;6.90;6.20;;;21.00;99.90;;;;;;5419807;26;20480;-73
2024/04/12 12:54:42;;;;;;;7.30;6.70;;;21.00;99.90;;;;;;5420416;26;20472;-73
2024/04/12 12:57:09;;;;;;;8.23;7.47;;;21.10;99.90;;;;;;5419612;26;20480;-73
2024/04/12 12:59:42;;;;;;;12.83;9.10;;;21.10;99.90;;;;;;5420211;26;20468;-73
2024/04/12 13:02:14;;;;;;;12.37;9.63;;;21.20;99.90;;;;;;5419724;26;20536;-73
2024/04/12 13:04:46;;;;;;;17.07;13.33;;;21.20;99.90;;;;;;5420150;26;20579;-73
2024/04/12 13:07:15;;;;;;;9.20;8.27;;;21.20;99.90;;;;;;5419220;26;20544;-72
2024/04/12 13:09:51;;;;;;;5.80;5.23;;;21.20;99.90;;;;;;5419977;26;20989;-73
2024/04/12 13:12:17;;;;;;;5.97;5.40;;;21.30;99.90;;;;;;5419634;26;20537;-73
2024/04/12 13:14:50;;;;;;;6.70;6.00;;;21.30;99.90;;;;;;5419687;26;20794;-73
2024/04/12 13:17:23;;;;;;;5.77;4.57;;;21.30;99.90;;;;;;5419328;26;20521;-73
2024/04/12 13:19:57;;;;;;;4.80;4.33;;;21.30;99.90;;;;;;5418560;26;20519;-73
2024/04/12 13:22:23;;;;;;;6.80;6.10;;;21.30;99.90;;;;;;5419433;26;20551;-73
2024/04/12 13:24:52;;;;;;;4.80;4.40;;;21.30;99.90;;;;;;5419844;26;21060;-73
2024/04/12 13:27:18;;;;;;;5.17;4.70;;;21.30;99.90;;;;;;5419439;26;20842;-73
2024/04/12 13:29:51;;;;;;;5.00;4.60;;;21.30;99.90;;;;;;5419872;26;20480;-73
2024/04/12 13:32:18;;;;;;;8.17;7.40;;;21.30;99.90;;;;;;5419190;26;20808;-73
2024/04/12 13:34:54;;;;;;;8.20;7.40;;;21.40;99.90;;;;;;5419983;26;20496;-72
2024/04/12 13:37:25;;;;;;;7.13;6.43;;;21.40;99.90;;;;;;5419281;26;20488;-73
2024/04/12 13:39:53;;;;;;;7.90;7.10;;;21.40;99.90;;;;;;5419729;26;20536;-73
2024/04/12 13:42:20;;;;;;;8.37;7.60;;;21.40;99.90;;;;;;5419277;26;20495;-73
2024/04/12 13:53:09;;;;;;;9.37;8.33;;;21.60;99.90;;;;;;5422241;26;20537;-72
2024/04/12 13:55:39;;;;;;;15.00;13.53;;;21.60;99.90;;;;;;5419077;26;20480;-73
2024/04/12 13:58:05;;;;;;;12.90;8.40;;;21.60;99.90;;;;;;5419281;26;20553;-73
2024/04/12 14:00:36;;;;;;;13.63;12.43;;;21.70;99.90;;;;;;5418883;26;21053;-72
2024/04/12 14:03:06;;;;;;;11.67;9.53;;;21.70;99.90;;;;;;5419199;26;20484;-72
2024/04/12 14:05:36;;;;;;;7.20;6.50;;;21.70;99.90;;;;;;5418755;26;20488;-72
2024/04/12 14:08:07;;;;;;;8.57;7.73;;;21.70;99.90;;;;;;5419369;26;20488;-72
2024/04/12 14:10:37;;;;;;;6.53;5.93;;;21.80;99.90;;;;;;5419033;26;20464;-72
2024/04/12 14:13:05;;;;;;;8.73;7.03;;;21.80;99.90;;;;;;5419318;26;20601;-72
2024/04/12 14:15:35;;;;;;;9.90;8.17;;;21.80;99.90;;;;;;5418908;26;20528;-72